createdAt,value
2023-04-27T00:00:23.826Z,399.00
2023-04-27T00:01:23.839Z,398.00
2023-04-27T00:02:24.072Z,398.00
2023-04-27T00:03:24.001Z,395.00
2023-04-27T00:04:24.041Z,396.00
2023-04-27T00:05:24.039Z,396.00
2023-04-27T00:06:23.872Z,396.00
2023-04-27T00:07:23.815Z,397.00
2023-04-27T00:08:23.843Z,395.00
2023-04-27T00:09:23.890Z,394.00
2023-04-27T00:10:23.863Z,393.00
2023-04-27T00:11:23.840Z,393.00
2023-04-27T00:12:23.831Z,395.00
2023-04-27T00:13:23.857Z,397.00
2023-04-27T00:14:23.872Z,398.00
2023-04-27T00:15:23.880Z,398.00
2023-04-27T00:16:23.875Z,400.00
2023-04-27T00:17:23.873Z,399.00
2023-04-27T00:18:23.852Z,399.00
2023-04-27T00:19:23.915Z,400.00
2023-04-27T00:20:23.906Z,401.00
2023-04-27T00:21:23.894Z,400.00
2023-04-27T00:22:23.981Z,399.00
2023-04-27T00:23:23.983Z,400.00
2023-04-27T00:24:23.947Z,401.00
2023-04-27T00:25:23.994Z,401.00
2023-04-27T00:26:24.003Z,402.00
2023-04-27T00:27:24.007Z,403.00
2023-04-27T00:28:24.011Z,402.00
2023-04-27T00:29:23.987Z,404.00
2023-04-27T00:30:23.992Z,405.00
2023-04-27T00:31:24.041Z,404.00
2023-04-27T00:32:24.060Z,403.00
2023-04-27T00:33:23.977Z,405.00
2023-04-27T00:34:23.999Z,406.00
2023-04-27T00:35:23.986Z,407.00
2023-04-27T00:36:24.029Z,406.00
2023-04-27T00:37:24.029Z,405.00
2023-04-27T00:38:24.041Z,407.00
2023-04-27T00:39:24.031Z,407.00
2023-04-27T00:40:24.057Z,405.00
2023-04-27T00:41:24.109Z,407.00
2023-04-27T00:42:24.125Z,407.00
2023-04-27T00:43:24.145Z,405.00
2023-04-27T00:44:24.231Z,404.00
2023-04-27T00:45:24.237Z,406.00
2023-04-27T00:46:24.389Z,407.00
2023-04-27T00:47:24.289Z,407.00
2023-04-27T00:48:24.309Z,407.00
2023-04-27T00:49:24.361Z,405.00
2023-04-27T00:50:24.365Z,404.00
2023-04-27T00:51:24.410Z,404.00
2023-04-27T00:52:24.437Z,404.00
2023-04-27T00:53:24.502Z,404.00
2023-04-27T00:54:24.508Z,406.00
2023-04-27T00:55:24.562Z,405.00
2023-04-27T00:56:24.536Z,405.00
2023-04-27T00:57:24.565Z,404.00
2023-04-27T00:58:24.601Z,401.00
2023-04-27T00:59:24.644Z,398.00
2023-04-27T01:00:24.641Z,398.00
2023-04-27T01:01:24.711Z,403.00
2023-04-27T01:02:24.865Z,402.00
2023-04-27T01:03:24.848Z,403.00
2023-04-27T01:04:24.835Z,404.00
2023-04-27T01:05:24.680Z,402.00
2023-04-27T01:06:24.728Z,401.00
2023-04-27T01:07:24.686Z,402.00
2023-04-27T01:08:24.692Z,403.00
2023-04-27T01:09:24.709Z,401.00
2023-04-27T01:10:24.717Z,399.00
2023-04-27T01:11:24.754Z,399.00
2023-04-27T01:12:24.730Z,399.00
2023-04-27T01:13:24.803Z,401.00
2023-04-27T01:14:24.762Z,399.00
2023-04-27T01:15:24.818Z,398.00
2023-04-27T01:16:24.904Z,399.00
2023-04-27T01:17:24.846Z,398.00
2023-04-27T01:18:24.837Z,398.00
2023-04-27T01:19:24.842Z,396.00
2023-04-27T01:20:24.849Z,397.00
2023-04-27T01:21:24.819Z,397.00
2023-04-27T01:22:24.869Z,396.00
2023-04-27T01:23:24.855Z,397.00
2023-04-27T01:24:24.853Z,397.00
2023-04-27T01:25:24.899Z,397.00
2023-04-27T01:26:24.925Z,398.00
2023-04-27T01:27:24.940Z,400.00
2023-04-27T01:28:24.871Z,400.00
2023-04-27T01:29:24.894Z,397.00
2023-04-27T01:30:24.966Z,396.00
2023-04-27T01:31:25.004Z,396.00
2023-04-27T01:32:24.932Z,396.00
2023-04-27T01:33:24.937Z,399.00
2023-04-27T01:34:24.937Z,399.00
2023-04-27T01:35:27.624Z,404.00
2023-04-27T01:36:25.005Z,403.00
2023-04-27T01:37:24.926Z,403.00
2023-04-27T01:38:24.955Z,403.00
2023-04-27T01:39:24.955Z,401.00
2023-04-27T01:40:24.910Z,401.00
2023-04-27T01:41:24.930Z,404.00
2023-04-27T01:42:24.934Z,404.00
2023-04-27T01:43:24.914Z,405.00
2023-04-27T01:44:24.895Z,405.00
2023-04-27T01:45:24.898Z,405.00
2023-04-27T01:46:24.948Z,404.00
2023-04-27T01:47:24.906Z,404.00
2023-04-27T01:48:24.886Z,405.00
2023-04-27T01:49:24.889Z,405.00
2023-04-27T01:50:24.852Z,406.00
2023-04-27T01:51:24.903Z,405.00
2023-04-27T01:52:24.843Z,403.00
2023-04-27T01:53:24.852Z,402.00
2023-04-27T01:54:26.380Z,405.00
2023-04-27T01:55:24.825Z,408.00
2023-04-27T01:56:24.812Z,407.00
2023-04-27T01:57:24.839Z,408.00
2023-04-27T01:58:24.795Z,407.00
2023-04-27T01:59:24.790Z,406.00
2023-04-27T02:00:24.805Z,405.00
2023-04-27T02:01:24.824Z,403.00
2023-04-27T02:02:24.889Z,403.00
2023-04-27T02:03:24.929Z,402.00
2023-04-27T02:04:24.851Z,405.00
2023-04-27T02:05:24.793Z,407.00
2023-04-27T02:06:24.761Z,408.00
2023-04-27T02:07:24.752Z,408.00
2023-04-27T02:08:24.711Z,408.00
2023-04-27T02:09:24.730Z,405.00
2023-04-27T02:10:24.709Z,405.00
2023-04-27T02:11:24.724Z,403.00
2023-04-27T02:12:24.678Z,403.00
2023-04-27T02:13:24.671Z,401.00
2023-04-27T02:14:24.669Z,398.00
2023-04-27T02:15:24.709Z,396.00
2023-04-27T02:16:24.695Z,396.00
2023-04-27T02:17:24.704Z,397.00
2023-04-27T02:18:24.665Z,400.00
2023-04-27T02:19:24.695Z,402.00
2023-04-27T02:20:24.627Z,402.00
2023-04-27T02:21:24.706Z,403.00
2023-04-27T02:22:24.645Z,403.00
2023-04-27T02:23:24.654Z,403.00
2023-04-27T02:24:24.617Z,403.00
2023-04-27T02:25:24.642Z,403.00
2023-04-27T02:26:24.602Z,403.00
2023-04-27T02:27:24.598Z,401.00
2023-04-27T02:28:24.580Z,403.00
2023-04-27T02:29:24.591Z,401.00
2023-04-27T02:30:24.601Z,402.00
2023-04-27T02:31:24.627Z,404.00
2023-04-27T02:32:24.589Z,402.00
2023-04-27T02:33:24.577Z,403.00
2023-04-27T02:34:24.591Z,402.00
2023-04-27T02:35:24.593Z,401.00
2023-04-27T02:36:24.562Z,400.00
2023-04-27T02:37:24.530Z,400.00
2023-04-27T02:38:24.524Z,401.00
2023-04-27T02:39:24.516Z,401.00
2023-04-27T02:40:24.477Z,401.00
2023-04-27T02:41:24.515Z,401.00
2023-04-27T02:42:24.456Z,401.00
2023-04-27T02:43:24.482Z,401.00
2023-04-27T02:44:24.481Z,402.00
2023-04-27T02:45:24.477Z,401.00
2023-04-27T02:46:24.485Z,402.00
2023-04-27T02:47:24.468Z,404.00
2023-04-27T02:48:24.442Z,405.00
2023-04-27T02:49:24.445Z,406.00
2023-04-27T02:50:24.488Z,408.00
2023-04-27T02:51:24.416Z,409.00
2023-04-27T02:52:24.424Z,406.00
2023-04-27T02:53:24.435Z,405.00
2023-04-27T02:54:24.466Z,407.00
2023-04-27T02:55:24.482Z,407.00
2023-04-27T02:56:24.401Z,407.00
2023-04-27T02:57:24.416Z,409.00
2023-04-27T02:58:24.394Z,407.00
2023-04-27T02:59:24.386Z,407.00
2023-04-27T03:00:24.408Z,406.00
2023-04-27T03:01:24.486Z,404.00
2023-04-27T03:02:24.507Z,402.00
2023-04-27T03:03:24.493Z,402.00
2023-04-27T03:04:24.469Z,403.00
2023-04-27T03:05:24.333Z,402.00
2023-04-27T03:06:24.386Z,404.00
2023-04-27T03:07:24.305Z,404.00
2023-04-27T03:08:24.297Z,403.00
2023-04-27T03:09:24.311Z,401.00
2023-04-27T03:10:24.333Z,401.00
2023-04-27T03:11:24.312Z,402.00
2023-04-27T03:12:24.247Z,401.00
2023-04-27T03:13:24.274Z,399.00
2023-04-27T03:14:24.275Z,400.00
2023-04-27T03:15:24.281Z,399.00
2023-04-27T03:16:24.306Z,398.00
2023-04-27T03:17:24.309Z,398.00
2023-04-27T03:18:24.254Z,398.00
2023-04-27T03:19:24.275Z,397.00
2023-04-27T03:20:24.229Z,398.00
2023-04-27T03:21:24.252Z,396.00
2023-04-27T03:22:24.210Z,396.00
2023-04-27T03:23:24.259Z,395.00
2023-04-27T03:24:24.214Z,396.00
2023-04-27T03:25:24.218Z,396.00
2023-04-27T03:26:24.252Z,394.00
2023-04-27T03:27:24.184Z,392.00
2023-04-27T03:28:24.225Z,392.00
2023-04-27T03:29:24.177Z,393.00
2023-04-27T03:30:24.187Z,394.00
2023-04-27T03:31:24.187Z,395.00
2023-04-27T03:32:24.211Z,394.00
2023-04-27T03:33:24.201Z,395.00
2023-04-27T03:34:24.203Z,394.00
2023-04-27T03:35:24.222Z,395.00
2023-04-27T03:36:24.230Z,396.00
2023-04-27T03:37:24.239Z,396.00
2023-04-27T03:38:24.306Z,395.00
2023-04-27T03:39:24.257Z,395.00
2023-04-27T03:40:24.316Z,395.00
2023-04-27T03:41:24.315Z,392.00
2023-04-27T03:42:24.327Z,392.00
2023-04-27T03:43:24.438Z,392.00
2023-04-27T03:44:24.490Z,393.00
2023-04-27T03:45:24.457Z,393.00
2023-04-27T03:46:24.525Z,392.00
2023-04-27T03:47:24.549Z,393.00
2023-04-27T03:48:24.607Z,393.00
2023-04-27T03:49:24.676Z,392.00
2023-04-27T03:50:24.667Z,393.00
2023-04-27T03:51:24.707Z,395.00
2023-04-27T03:52:24.706Z,395.00
2023-04-27T03:53:24.712Z,392.00
2023-04-27T03:54:24.748Z,392.00
2023-04-27T03:55:24.743Z,393.00
2023-04-27T03:56:24.840Z,391.00
2023-04-27T03:57:24.798Z,390.00
2023-04-27T03:58:24.770Z,391.00
2023-04-27T03:59:24.852Z,393.00
2023-04-27T04:00:24.863Z,391.00
2023-04-27T04:01:24.886Z,390.00
2023-04-27T04:02:25.022Z,389.00
2023-04-27T04:03:25.099Z,389.00
2023-04-27T04:04:25.110Z,391.00
2023-04-27T04:05:24.948Z,394.00
2023-04-27T04:06:24.946Z,394.00
2023-04-27T04:07:25.018Z,396.00
2023-04-27T04:08:24.976Z,397.00
2023-04-27T04:09:25.018Z,397.00
2023-04-27T04:10:25.081Z,398.00
2023-04-27T04:11:25.096Z,396.00
2023-04-27T04:12:25.170Z,396.00
2023-04-27T04:13:25.185Z,398.00
2023-04-27T04:14:25.158Z,399.00
2023-04-27T04:15:25.220Z,400.00
2023-04-27T04:16:25.344Z,402.00
2023-04-27T04:17:25.389Z,403.00
2023-04-27T04:18:25.393Z,406.00
2023-04-27T04:19:25.430Z,407.00
2023-04-27T04:20:25.521Z,409.00
2023-04-27T04:21:25.502Z,407.00
2023-04-27T04:22:25.521Z,407.00
2023-04-27T04:23:25.577Z,407.00
2023-04-27T04:24:25.637Z,409.00
2023-04-27T04:25:25.589Z,409.00
2023-04-27T04:26:25.657Z,409.00
2023-04-27T04:27:25.692Z,412.00
2023-04-27T04:28:25.707Z,416.00
2023-04-27T04:29:25.740Z,417.00
2023-04-27T04:30:25.820Z,417.00
2023-04-27T04:31:25.878Z,419.00
2023-04-27T04:32:25.989Z,420.00
2023-04-27T04:33:25.944Z,417.00
2023-04-27T04:34:26.005Z,417.00
2023-04-27T04:35:26.050Z,417.00
2023-04-27T04:36:26.066Z,415.00
2023-04-27T04:37:26.157Z,417.00
2023-04-27T04:38:26.169Z,415.00
2023-04-27T04:39:26.220Z,414.00
2023-04-27T04:40:26.251Z,414.00
2023-04-27T04:41:26.280Z,414.00
2023-04-27T04:42:26.334Z,413.00
2023-04-27T04:43:26.336Z,412.00
2023-04-27T04:44:26.320Z,414.00
2023-04-27T04:45:26.342Z,413.00
2023-04-27T04:46:26.444Z,414.00
2023-04-27T04:47:26.458Z,417.00
2023-04-27T04:48:26.425Z,415.00
2023-04-27T04:49:26.454Z,415.00
2023-04-27T04:50:26.501Z,415.00
2023-04-27T04:51:26.522Z,414.00
2023-04-27T04:52:26.601Z,413.00
2023-04-27T04:53:26.650Z,414.00
2023-04-27T04:54:26.673Z,413.00
2023-04-27T04:55:26.684Z,411.00
2023-04-27T04:56:26.705Z,411.00
2023-04-27T04:57:26.783Z,412.00
2023-04-27T04:58:26.816Z,413.00
2023-04-27T04:59:26.914Z,415.00
2023-04-27T05:00:26.950Z,416.00
2023-04-27T05:01:27.057Z,415.00
2023-04-27T05:02:27.133Z,416.00
2023-04-27T05:03:27.257Z,418.00
2023-04-27T05:04:27.256Z,419.00
2023-04-27T05:05:27.185Z,420.00
2023-04-27T05:06:27.207Z,419.00
2023-04-27T05:07:27.261Z,417.00
2023-04-27T05:08:27.299Z,416.00
2023-04-27T05:09:27.318Z,418.00
2023-04-27T05:10:27.378Z,419.00
2023-04-27T05:11:27.388Z,417.00
2023-04-27T05:12:27.417Z,416.00
2023-04-27T05:13:27.434Z,416.00
2023-04-27T05:14:27.458Z,414.00
2023-04-27T05:15:27.522Z,415.00
2023-04-27T05:16:27.544Z,416.00
2023-04-27T05:17:27.578Z,415.00
2023-04-27T05:18:27.575Z,416.00
2023-04-27T05:19:27.573Z,417.00
2023-04-27T05:20:27.656Z,417.00
2023-04-27T05:21:27.653Z,417.00
2023-04-27T05:22:27.710Z,418.00
2023-04-27T05:23:27.708Z,421.00
2023-04-27T05:24:27.806Z,421.00
2023-04-27T05:25:27.779Z,421.00
2023-04-27T05:26:27.788Z,421.00
2023-04-27T05:27:27.866Z,419.00
2023-04-27T05:28:27.912Z,421.00
2023-04-27T05:29:27.917Z,420.00
2023-04-27T05:30:27.966Z,418.00
2023-04-27T05:31:28.049Z,417.00
2023-04-27T05:32:28.081Z,420.00
2023-04-27T05:33:28.078Z,453.00
2023-04-27T05:34:28.167Z,451.00
2023-04-27T05:35:28.208Z,452.00
2023-04-27T05:36:28.310Z,473.00
2023-04-27T05:37:28.332Z,489.00
2023-04-27T05:38:28.303Z,489.00
2023-04-27T05:39:28.369Z,530.00
2023-04-27T05:40:28.411Z,549.00
2023-04-27T05:41:28.454Z,533.00
2023-04-27T05:42:28.452Z,541.00
2023-04-27T05:43:28.470Z,544.00
2023-04-27T05:44:28.585Z,544.00
2023-04-27T05:45:28.596Z,550.00
2023-04-27T05:46:28.548Z,595.00
2023-04-27T05:47:28.617Z,598.00
2023-04-27T05:48:28.555Z,600.00
2023-04-27T05:49:28.619Z,603.00
2023-04-27T05:50:28.573Z,605.00
2023-04-27T05:51:28.649Z,610.00
2023-04-27T05:52:29.092Z,618.00
2023-04-27T05:53:28.639Z,621.00
2023-04-27T05:54:28.654Z,628.00
2023-04-27T05:55:28.656Z,627.00
2023-04-27T05:56:28.733Z,633.00
2023-04-27T05:57:28.724Z,641.00
2023-04-27T05:58:28.690Z,645.00
2023-04-27T05:59:28.693Z,651.00
2023-04-27T06:00:28.790Z,660.00
2023-04-27T06:01:28.777Z,668.00
2023-04-27T06:02:29.161Z,669.00
2023-04-27T06:03:28.970Z,670.00
2023-04-27T06:04:28.851Z,677.00
2023-04-27T06:05:28.867Z,673.00
2023-04-27T06:06:28.790Z,673.00
2023-04-27T06:07:28.838Z,677.00
2023-04-27T06:08:28.759Z,682.00
2023-04-27T06:09:28.769Z,690.00
2023-04-27T06:10:28.759Z,694.00
2023-04-27T06:11:28.896Z,698.00
2023-04-27T06:12:28.772Z,704.00
2023-04-27T06:13:28.819Z,716.00
2023-04-27T06:14:28.783Z,725.00
2023-04-27T06:15:28.780Z,742.00
2023-04-27T06:16:28.895Z,737.00
2023-04-27T06:17:28.922Z,738.00
2023-04-27T06:18:29.066Z,739.00
2023-04-27T06:19:28.872Z,741.00
2023-04-27T06:20:28.863Z,743.00
2023-04-27T06:21:28.844Z,743.00
2023-04-27T06:22:28.796Z,744.00
2023-04-27T06:23:29.126Z,745.00
2023-04-27T06:24:28.817Z,748.00
2023-04-27T06:25:29.387Z,750.00
2023-04-27T06:26:28.829Z,752.00
2023-04-27T06:27:28.861Z,751.00
2023-04-27T06:28:28.861Z,753.00
2023-04-27T06:29:28.854Z,758.00
2023-04-27T06:30:29.094Z,759.00
2023-04-27T06:31:28.926Z,759.00
2023-04-27T06:32:28.987Z,763.00
2023-04-27T06:33:29.030Z,764.00
2023-04-27T06:34:29.081Z,766.00
2023-04-27T06:35:29.095Z,769.00
2023-04-27T06:36:29.117Z,770.00
2023-04-27T06:37:29.582Z,768.00
2023-04-27T06:38:29.114Z,770.00
2023-04-27T06:39:29.113Z,780.00
2023-04-27T06:40:29.591Z,796.00
2023-04-27T06:41:29.152Z,720.00
2023-04-27T06:42:29.145Z,675.00
2023-04-27T06:43:29.144Z,691.00
2023-04-27T06:44:29.184Z,728.00
2023-04-27T06:45:29.619Z,764.00
2023-04-27T06:46:29.301Z,765.00
2023-04-27T06:47:29.401Z,768.00
2023-04-27T06:48:29.326Z,774.00
2023-04-27T06:49:29.395Z,794.00
2023-04-27T06:50:29.451Z,794.00
2023-04-27T06:51:29.434Z,793.00
2023-04-27T06:52:29.532Z,795.00
2023-04-27T06:53:29.465Z,797.00
2023-04-27T06:54:29.459Z,800.00
2023-04-27T06:55:29.469Z,811.00
2023-04-27T06:56:29.481Z,813.00
2023-04-27T06:57:29.509Z,815.00
2023-04-27T06:58:29.479Z,818.00
2023-04-27T06:59:29.734Z,822.00
2023-04-27T07:00:29.462Z,826.00
2023-04-27T07:01:29.856Z,823.00
2023-04-27T07:02:29.513Z,826.00
2023-04-27T07:03:29.597Z,831.00
2023-04-27T07:04:29.516Z,830.00
2023-04-27T07:05:29.530Z,834.00
2023-04-27T07:06:29.543Z,838.00
2023-04-27T07:07:29.568Z,844.00
2023-04-27T07:08:29.514Z,850.00
2023-04-27T07:09:29.754Z,846.00
2023-04-27T07:10:29.672Z,845.00
2023-04-27T07:11:29.653Z,847.00
2023-04-27T07:12:29.691Z,841.00
2023-04-27T07:13:30.142Z,838.00
2023-04-27T07:14:29.795Z,836.00
2023-04-27T07:15:29.924Z,827.00
2023-04-27T07:16:29.895Z,826.00
2023-04-27T07:17:29.842Z,827.00
2023-04-27T07:18:29.850Z,828.00
2023-04-27T07:19:29.909Z,825.00
2023-04-27T07:20:29.955Z,812.00
2023-04-27T07:21:29.966Z,813.00
2023-04-27T07:22:30.021Z,804.00
2023-04-27T07:23:30.029Z,801.00
2023-04-27T07:24:30.076Z,798.00
2023-04-27T07:25:30.160Z,817.00
2023-04-27T07:26:30.585Z,817.00
2023-04-27T07:27:30.341Z,823.00
2023-04-27T07:28:30.313Z,824.00
2023-04-27T07:29:30.412Z,849.00
2023-04-27T07:30:30.337Z,803.00
2023-04-27T07:31:30.419Z,762.00
2023-04-27T07:32:30.537Z,738.00
2023-04-27T07:33:30.515Z,741.00
2023-04-27T07:34:41.091Z,733.00
2023-04-27T07:35:31.554Z,731.00
2023-04-27T07:36:30.634Z,726.00
2023-04-27T07:37:30.483Z,798.00
2023-04-27T07:38:30.482Z,709.00
2023-04-27T07:39:30.478Z,698.00
2023-04-27T07:40:30.509Z,685.00
2023-04-27T07:41:30.503Z,684.00
2023-04-27T07:42:30.470Z,640.00
2023-04-27T07:43:30.485Z,654.00
2023-04-27T07:44:30.473Z,721.00
2023-04-27T07:45:30.479Z,720.00
2023-04-27T07:46:30.439Z,724.00
2023-04-27T07:47:30.404Z,681.00
2023-04-27T07:48:30.404Z,676.00
2023-04-27T07:49:30.412Z,666.00
2023-04-27T07:50:30.461Z,747.00
2023-04-27T07:51:30.428Z,689.00
2023-04-27T07:52:30.382Z,678.00
2023-04-27T07:53:30.387Z,685.00
2023-04-27T07:54:30.361Z,685.00
2023-04-27T07:55:30.378Z,695.00
2023-04-27T07:56:30.368Z,753.00
2023-04-27T07:57:30.427Z,776.00
2023-04-27T07:58:30.302Z,787.00
2023-04-27T07:59:30.385Z,797.00
2023-04-27T08:00:30.355Z,803.00
2023-04-27T08:01:30.397Z,816.00
2023-04-27T08:02:30.807Z,827.00
2023-04-27T08:03:30.788Z,836.00
2023-04-27T08:04:30.826Z,848.00
2023-04-27T08:05:31.092Z,854.00
2023-04-27T08:06:30.996Z,860.00
2023-04-27T08:07:30.987Z,881.00
2023-04-27T08:08:31.166Z,887.00
2023-04-27T08:09:30.876Z,898.00
2023-04-27T08:10:30.822Z,904.00
2023-04-27T08:11:30.913Z,910.00
2023-04-27T08:12:30.913Z,916.00
2023-04-27T08:13:31.000Z,920.00
2023-04-27T08:14:31.052Z,924.00
2023-04-27T08:15:31.065Z,929.00
2023-04-27T08:16:31.138Z,933.00
2023-04-27T08:17:31.153Z,939.00
2023-04-27T08:18:31.174Z,946.00
2023-04-27T08:19:31.195Z,954.00
2023-04-27T08:20:31.183Z,955.00
2023-04-27T08:21:31.256Z,963.00
2023-04-27T08:22:31.252Z,967.00
2023-04-27T08:23:31.340Z,968.00
2023-04-27T08:24:31.294Z,969.00
2023-04-27T08:25:31.330Z,977.00
2023-04-27T08:26:31.305Z,982.00
2023-04-27T08:27:31.714Z,1035.00
2023-04-27T08:28:31.437Z,1013.00
2023-04-27T08:29:31.656Z,1006.00
2023-04-27T08:30:31.402Z,999.00
2023-04-27T08:31:31.495Z,988.00
2023-04-27T08:32:31.496Z,962.00
2023-04-27T08:33:31.489Z,943.00
2023-04-27T08:34:31.489Z,912.00
2023-04-27T08:35:31.489Z,902.00
2023-04-27T08:36:31.491Z,896.00
2023-04-27T08:37:31.551Z,881.00
2023-04-27T08:38:31.579Z,861.00
2023-04-27T08:39:31.626Z,852.00
2023-04-27T08:40:31.699Z,839.00
2023-04-27T08:41:31.689Z,821.00
2023-04-27T08:42:31.726Z,883.00
2023-04-27T08:43:31.803Z,885.00
2023-04-27T08:44:31.811Z,884.00
2023-04-27T08:45:31.817Z,881.00
2023-04-27T08:46:31.889Z,886.00
2023-04-27T08:47:41.870Z,896.00
2023-04-27T08:48:32.933Z,923.00
2023-04-27T08:49:31.880Z,924.00
2023-04-27T08:50:31.901Z,929.00
2023-04-27T08:51:31.902Z,950.00
2023-04-27T08:52:31.870Z,955.00
2023-04-27T08:53:31.880Z,962.00
2023-04-27T08:54:31.823Z,975.00
2023-04-27T08:55:31.899Z,959.00
2023-04-27T08:56:31.852Z,953.00
2023-04-27T08:57:31.829Z,968.00
2023-04-27T08:58:31.816Z,944.00
2023-04-27T08:59:31.816Z,951.00
2023-04-27T09:00:31.830Z,950.00
2023-04-27T09:01:31.881Z,947.00
2023-04-27T09:02:32.012Z,957.00
2023-04-27T09:03:32.087Z,958.00
2023-04-27T09:04:32.032Z,965.00
2023-04-27T09:05:32.097Z,984.00
2023-04-27T09:06:32.131Z,972.00
2023-04-27T09:07:32.118Z,947.00
2023-04-27T09:08:32.120Z,946.00
2023-04-27T09:09:32.194Z,945.00
2023-04-27T09:10:32.200Z,943.00
2023-04-27T09:11:32.207Z,969.00
2023-04-27T09:12:32.222Z,948.00
2023-04-27T09:13:32.659Z,944.00
2023-04-27T09:14:32.226Z,944.00
2023-04-27T09:15:32.232Z,945.00
2023-04-27T09:16:32.346Z,943.00
2023-04-27T09:17:32.296Z,942.00
2023-04-27T09:18:32.355Z,905.00
2023-04-27T09:19:32.370Z,916.00
2023-04-27T09:20:32.400Z,912.00
2023-04-27T09:21:32.383Z,921.00
2023-04-27T09:22:32.378Z,940.00
2023-04-27T09:23:32.441Z,955.00
2023-04-27T09:24:32.460Z,960.00
2023-04-27T09:25:32.435Z,957.00
2023-04-27T09:26:32.450Z,953.00
2023-04-27T09:27:32.472Z,945.00
2023-04-27T09:28:32.481Z,938.00
2023-04-27T09:29:32.464Z,942.00
2023-04-27T09:30:32.635Z,946.00
2023-04-27T09:31:32.514Z,949.00
2023-04-27T09:32:32.465Z,1053.00
2023-04-27T09:33:32.506Z,1029.00
2023-04-27T09:34:32.522Z,1025.00
2023-04-27T09:35:32.655Z,1031.00
2023-04-27T09:36:32.672Z,1041.00
2023-04-27T09:37:32.586Z,1053.00
2023-04-27T09:38:32.657Z,1067.00
2023-04-27T09:39:32.701Z,1067.00
2023-04-27T09:40:32.817Z,1066.00
2023-04-27T09:41:32.752Z,1066.00
2023-04-27T09:42:32.720Z,1072.00
2023-04-27T09:43:32.780Z,1068.00
2023-04-27T09:44:32.799Z,1060.00
2023-04-27T09:45:32.909Z,1056.00
2023-04-27T09:46:32.961Z,1056.00
2023-04-27T09:47:33.020Z,1054.00
2023-04-27T09:48:33.004Z,1055.00
2023-04-27T09:49:33.075Z,1056.00
2023-04-27T09:50:33.133Z,1058.00
2023-04-27T09:51:33.196Z,1057.00
2023-04-27T09:52:33.244Z,1057.00
2023-04-27T09:53:33.317Z,1052.00
2023-04-27T09:54:35.167Z,1045.00
2023-04-27T09:55:33.448Z,1036.00
2023-04-27T09:56:33.674Z,1032.00
2023-04-27T09:57:33.542Z,1020.00
2023-04-27T09:58:33.616Z,998.00
2023-04-27T09:59:33.662Z,931.00
2023-04-27T10:00:33.735Z,944.00
2023-04-27T10:01:35.251Z,948.00
2023-04-27T10:02:46.301Z,939.00
2023-04-27T10:03:34.893Z,859.00
2023-04-27T10:04:33.959Z,812.00
2023-04-27T10:05:33.768Z,780.00
2023-04-27T10:06:33.760Z,763.00
2023-04-27T10:07:33.760Z,763.00
2023-04-27T10:08:33.716Z,736.00
2023-04-27T10:09:33.749Z,745.00
2023-04-27T10:10:33.733Z,740.00
2023-04-27T10:11:33.730Z,740.00
2023-04-27T10:12:33.759Z,743.00
2023-04-27T10:13:33.708Z,743.00
2023-04-27T10:14:33.699Z,747.00
2023-04-27T10:15:33.716Z,752.00
2023-04-27T10:16:33.691Z,766.00
2023-04-27T10:17:33.849Z,786.00
2023-04-27T10:18:33.845Z,785.00
2023-04-27T10:19:33.903Z,785.00
2023-04-27T10:20:33.899Z,795.00
2023-04-27T10:21:33.917Z,811.00
2023-04-27T10:22:34.501Z,819.00
2023-04-27T10:23:33.961Z,835.00
2023-04-27T10:24:33.973Z,943.00
2023-04-27T10:25:33.977Z,862.00
2023-04-27T10:26:36.012Z,849.00
2023-04-27T10:27:34.011Z,869.00
2023-04-27T10:28:34.185Z,839.00
2023-04-27T10:29:34.041Z,753.00
2023-04-27T10:30:34.070Z,688.00
2023-04-27T10:31:34.043Z,691.00
2023-04-27T10:32:34.084Z,689.00
2023-04-27T10:33:34.002Z,697.00
2023-04-27T10:34:33.972Z,697.00
2023-04-27T10:35:33.978Z,671.00
2023-04-27T10:36:33.948Z,669.00
2023-04-27T10:37:33.976Z,684.00
2023-04-27T10:38:33.956Z,686.00
2023-04-27T10:39:46.936Z,715.00
2023-04-27T10:40:34.980Z,726.00
2023-04-27T10:41:33.967Z,731.00
2023-04-27T10:42:33.962Z,723.00
2023-04-27T10:43:33.921Z,733.00
2023-04-27T10:44:33.999Z,740.00
2023-04-27T10:45:33.920Z,737.00
2023-04-27T10:46:33.957Z,689.00
2023-04-27T10:47:33.925Z,714.00
2023-04-27T10:48:33.900Z,727.00
2023-04-27T10:49:33.922Z,737.00
2023-04-27T10:50:33.925Z,739.00
2023-04-27T10:51:33.853Z,719.00
2023-04-27T10:52:33.869Z,717.00
2023-04-27T10:53:33.879Z,683.00
2023-04-27T10:54:33.901Z,688.00
2023-04-27T10:55:33.845Z,685.00
2023-04-27T10:56:33.844Z,742.00
2023-04-27T10:57:33.877Z,731.00
2023-04-27T10:58:45.267Z,731.00
2023-04-27T10:59:34.848Z,737.00
2023-04-27T11:00:33.819Z,736.00
2023-04-27T11:01:33.869Z,677.00
2023-04-27T11:02:33.855Z,680.00
2023-04-27T11:03:33.899Z,734.00
2023-04-27T11:04:33.792Z,729.00
2023-04-27T11:05:33.806Z,726.00
2023-04-27T11:06:33.756Z,708.00
2023-04-27T11:07:33.766Z,724.00
2023-04-27T11:08:33.772Z,741.00
2023-04-27T11:09:33.767Z,748.00
2023-04-27T11:10:33.804Z,753.00
2023-04-27T11:11:33.745Z,757.00
2023-04-27T11:12:33.883Z,759.00
2023-04-27T11:13:33.771Z,759.00
2023-04-27T11:14:33.772Z,760.00
2023-04-27T11:15:33.831Z,762.00
2023-04-27T11:16:33.947Z,768.00
2023-04-27T11:17:33.979Z,764.00
2023-04-27T11:18:34.001Z,759.00
2023-04-27T11:19:34.035Z,755.00
2023-04-27T11:20:34.112Z,793.00
2023-04-27T11:21:34.212Z,791.00
2023-04-27T11:22:34.256Z,790.00
2023-04-27T11:23:34.360Z,782.00
2023-04-27T11:24:34.760Z,764.00
2023-04-27T11:25:34.391Z,762.00
2023-04-27T11:26:34.708Z,751.00
2023-04-27T11:27:34.526Z,743.00
2023-04-27T11:28:34.606Z,735.00
2023-04-27T11:29:34.777Z,728.00
2023-04-27T11:30:34.696Z,718.00
2023-04-27T11:31:34.895Z,710.00
2023-04-27T11:32:34.820Z,699.00
2023-04-27T11:33:35.921Z,693.00
2023-04-27T11:34:34.784Z,682.00
2023-04-27T11:35:34.841Z,673.00
2023-04-27T11:36:34.886Z,667.00
2023-04-27T11:37:34.986Z,664.00
2023-04-27T11:38:35.057Z,655.00
2023-04-27T11:39:35.044Z,647.00
2023-04-27T11:40:35.075Z,641.00
2023-04-27T11:41:35.095Z,636.00
2023-04-27T11:42:35.089Z,635.00
2023-04-27T11:43:38.718Z,631.00
2023-04-27T11:44:35.070Z,627.00
2023-04-27T11:45:35.101Z,621.00
2023-04-27T11:46:35.246Z,617.00
2023-04-27T11:47:35.161Z,614.00
2023-04-27T11:48:35.071Z,609.00
2023-04-27T11:49:35.038Z,608.00
2023-04-27T11:50:35.039Z,613.00
2023-04-27T11:51:35.047Z,617.00
2023-04-27T11:52:35.062Z,620.00
2023-04-27T11:53:35.071Z,618.00
2023-04-27T11:54:35.032Z,616.00
2023-04-27T11:55:35.008Z,615.00
2023-04-27T11:56:35.032Z,610.00
2023-04-27T11:57:34.985Z,612.00
2023-04-27T11:58:35.204Z,610.00
2023-04-27T11:59:35.007Z,612.00
2023-04-27T12:00:35.020Z,613.00
2023-04-27T12:01:38.038Z,614.00
2023-04-27T12:02:36.383Z,614.00
2023-04-27T12:03:35.729Z,616.00
2023-04-27T12:04:35.074Z,613.00
2023-04-27T12:05:35.241Z,606.00
2023-04-27T12:06:34.916Z,598.00
2023-04-27T12:07:34.952Z,594.00
2023-04-27T12:08:34.968Z,591.00
2023-04-27T12:09:34.913Z,587.00
2023-04-27T12:10:34.908Z,589.00
2023-04-27T12:11:34.930Z,595.00
2023-04-27T12:12:34.951Z,594.00
2023-04-27T12:13:34.947Z,594.00
2023-04-27T12:14:34.931Z,595.00
2023-04-27T12:15:34.948Z,596.00
2023-04-27T12:16:35.001Z,596.00
2023-04-27T12:17:35.084Z,590.00
2023-04-27T12:18:34.981Z,580.00
2023-04-27T12:19:35.003Z,572.00
2023-04-27T12:20:34.988Z,570.00
2023-04-27T12:21:34.979Z,574.00
2023-04-27T12:22:34.949Z,576.00
2023-04-27T12:23:35.009Z,576.00
2023-04-27T12:24:35.013Z,566.00
2023-04-27T12:25:34.976Z,561.00
2023-04-27T12:26:35.028Z,527.00
2023-04-27T12:27:34.984Z,528.00